Time;durP1;ratioP1;P1;durP2;ratioP2;P2;SDS_P1;SDS_P2;PMS_P1;PMS_P2;Temp;Humidity;BMP_temperature;BMP_pressure;BME280_temperature;BME280_humidity;BME280_pressure;Samples;Min_cycle;Max_cycle;Signal;HPM_P1;HPM_P2
2022/04/24 00:02:02;;;;;;;9.10;4.53;;;;;;;11.50;53.59;100164.78;5089356;28;20032;-72
2022/04/24 00:04:28;;;;;;;8.82;4.60;;;;;;;11.46;53.90;100162.75;5089487;28;20032;-72
2022/04/24 00:06:53;;;;;;;8.52;4.93;;;;;;;11.42;54.30;100162.34;5089478;28;20026;-72
2022/04/24 00:09:20;;;;;;;10.57;5.57;;;;;;;11.37;54.27;100156.84;5089367;28;20032;-72
2022/04/24 00:11:45;;;;;;;10.13;4.82;;;;;;;11.28;54.42;100150.97;5108706;28;20051;-72
2022/04/24 00:14:11;;;;;;;8.13;4.85;;;;;;;11.23;54.41;100150.00;5104951;28;20032;-72
2022/04/24 00:16:38;;;;;;;11.18;5.88;;;;;;;11.22;55.01;100154.53;5089320;28;20036;-72
2022/04/24 00:19:04;;;;;;;8.80;5.18;;;;;;;11.10;54.80;100142.91;5108558;28;20024;-72
2022/04/24 00:21:30;;;;;;;8.70;5.45;;;;;;;11.11;55.29;100149.91;5108716;28;20070;-72
2022/04/24 00:23:55;;;;;;;10.57;5.90;;;;;;;11.08;55.08;100142.31;5108694;28;20100;-72
2022/04/24 00:26:21;;;;;;;9.13;5.40;;;;;;;11.02;55.46;100143.19;5108716;28;20027;-72
2022/04/24 00:28:46;;;;;;;10.15;5.80;;;;;;;10.98;55.77;100142.81;5112218;28;20526;-72
2022/04/24 00:31:12;;;;;;;10.20;5.15;;;;;;;10.92;55.49;100131.13;5112104;28;20023;-71
2022/04/24 00:33:37;;;;;;;10.48;4.95;;;;;;;10.94;55.37;100137.06;5094038;28;20034;-72
2022/04/24 00:36:03;;;;;;;10.30;5.63;;;;;;;10.92;55.88;100143.66;5112227;28;20092;-72
2022/04/24 00:38:28;;;;;;;9.18;5.47;;;;;;;10.87;55.82;100138.16;5112302;28;20032;-72
2022/04/24 00:40:54;;;;;;;9.65;5.45;;;;;;;10.84;56.36;100130.59;5112209;28;20031;-72
2022/04/24 00:43:20;;;;;;;8.30;4.90;;;;;;;10.81;56.11;100137.16;5111478;28;20723;-72
2022/04/24 00:45:45;;;;;;;10.20;5.15;;;;;;;10.78;56.17;100131.47;5111276;28;20074;-72
2022/04/24 00:48:11;;;;;;;9.95;5.30;;;;;;;10.74;56.35;100117.72;5111515;28;20368;-72
2022/04/24 00:50:39;;;;;;;12.70;5.53;;;;;;;10.79;56.55;100130.41;5101092;28;20066;-72
2022/04/24 00:53:06;;;;;;;8.55;5.28;;;;;;;10.72;56.42;100127.81;5092375;28;20020;-72
2022/04/24 00:55:31;;;;;;;9.70;5.30;;;;;;;10.67;57.23;100125.78;5111369;28;20031;-72
2022/04/24 00:57:57;;;;;;;8.88;5.53;;;;;;;10.61;57.20;100132.00;5111963;28;20066;-72
2022/04/24 01:00:22;;;;;;;9.75;5.60;;;;;;;10.60;57.01;100121.53;5100483;28;20114;-72
2022/04/24 01:02:48;;;;;;;10.30;5.90;;;;;;;10.60;57.39;100122.34;5111524;28;20418;-72
2022/04/24 01:05:16;;;;;;;7.32;5.03;;;;;;;10.53;57.14;100122.38;5112019;28;20463;-72
2022/04/24 01:07:41;;;;;;;8.15;5.35;;;;;;;10.57;57.48;100127.28;5111849;27;20065;-72
2022/04/24 01:10:07;;;;;;;12.63;5.68;;;;;;;10.55;57.16;100127.50;5111549;28;20416;-72
2022/04/24 01:12:32;;;;;;;8.57;4.88;;;;;;;10.54;57.53;100128.53;5111261;28;20043;-72
2022/04/24 01:14:58;;;;;;;10.85;5.63;;;;;;;10.55;57.11;100138.16;5111474;28;20061;-72
2022/04/24 01:17:23;;;;;;;10.52;6.18;;;;;;;10.53;57.25;100129.53;5110237;28;20023;-72
2022/04/24 01:19:49;;;;;;;10.77;5.75;;;;;;;10.55;57.53;100140.00;5109524;28;20031;-72
2022/04/24 01:22:19;;;;;;;10.93;5.35;;;;;;;10.51;57.30;100137.78;5096942;28;20126;-71
2022/04/24 01:24:44;;;;;;;10.85;6.20;;;;;;;10.46;57.29;100128.78;5111435;28;20118;-71
2022/04/24 01:27:10;;;;;;;12.55;6.10;;;;;;;10.49;57.02;100129.16;5110960;28;20031;-72
2022/04/24 01:29:35;;;;;;;9.25;5.28;;;;;;;10.48;57.11;100126.72;5110876;28;20036;-72
2022/04/24 01:32:00;;;;;;;8.60;5.20;;;;;;;10.46;57.18;100140.25;5110941;28;20035;-72
2022/04/24 01:34:26;;;;;;;8.73;5.40;;;;;;;10.42;57.87;100130.22;5111513;28;20035;-72
2022/04/24 01:36:51;;;;;;;10.77;5.30;;;;;;;10.40;57.78;100135.78;5111137;28;20036;-72
2022/04/24 01:39:17;;;;;;;9.07;5.20;;;;;;;10.40;57.73;100141.13;5110074;28;20093;-72
2022/04/24 01:41:42;;;;;;;9.45;4.70;;;;;;;10.39;57.57;100134.13;5111042;28;20028;-72
2022/04/24 01:44:08;;;;;;;10.45;6.05;;;;;;;10.35;57.81;100138.28;5110900;28;20024;-72
2022/04/24 01:46:33;;;;;;;9.98;5.35;;;;;;;10.35;57.92;100126.78;5106165;28;20498;-71
2022/04/24 01:48:59;;;;;;;10.82;5.70;;;;;;;10.29;58.43;100134.59;5091357;28;20110;-72
2022/04/24 01:51:24;;;;;;;14.85;5.82;;;;;;;10.21;57.99;100134.00;5108658;28;20142;-72
2022/04/24 01:53:49;;;;;;;10.20;5.78;;;;;;;10.20;58.76;100143.03;5110695;28;20038;-72
2022/04/24 01:56:15;;;;;;;10.30;5.25;;;;;;;10.22;58.28;100141.78;5103234;28;20089;-72
2022/04/24 01:58:41;;;;;;;10.82;6.30;;;;;;;10.17;58.43;100127.47;5091418;28;20036;-72
2022/04/24 02:01:07;;;;;;;11.18;6.75;;;;;;;10.09;58.74;100129.34;5091145;28;20028;-73
2022/04/24 02:03:33;;;;;;;9.77;5.85;;;;;;;10.09;58.69;100137.34;5091282;28;20103;-72
2022/04/24 02:06:00;;;;;;;10.35;6.30;;;;;;;10.20;58.13;100137.69;5110729;28;20115;-71
2022/04/24 02:08:25;;;;;;;10.25;6.13;;;;;;;10.13;58.93;100128.91;5091061;28;20051;-72
2022/04/24 02:10:51;;;;;;;11.60;6.75;;;;;;;10.02;59.24;100120.53;5072861;28;20460;-72
2022/04/24 02:13:17;;;;;;;11.60;6.57;;;;;;;10.08;58.85;100141.00;5110414;28;20050;-71
2022/04/24 02:15:43;;;;;;;10.98;5.13;;;;;;;10.08;59.06;100145.53;5110290;28;20059;-72
2022/04/24 02:18:08;;;;;;;11.32;6.00;;;;;;;10.06;59.19;100136.91;5110328;27;20031;-72
2022/04/24 02:20:34;;;;;;;12.52;6.55;;;;;;;10.03;59.12;100129.34;5108980;28;20054;-72
2022/04/24 02:22:59;;;;;;;9.80;5.97;;;;;;;10.05;59.36;100138.75;5093405;28;20360;-72
2022/04/24 02:25:25;;;;;;;13.60;6.47;;;;;;;10.01;59.43;100136.75;5089279;28;20031;-72
2022/04/24 02:27:53;;;;;;;12.32;6.13;;;;;;;9.98;59.25;100131.81;5090760;28;20027;-72
2022/04/24 02:30:20;;;;;;;13.38;6.38;;;;;;;9.95;59.53;100140.25;5109821;28;20491;-72
2022/04/24 02:32:45;;;;;;;11.45;6.63;;;;;;;9.93;59.84;100134.28;5092097;28;20024;-72
2022/04/24 02:35:12;;;;;;;13.32;7.32;;;;;;;9.89;59.91;100133.91;5090501;28;20047;-72
2022/04/24 02:37:38;;;;;;;12.15;7.25;;;;;;;9.84;59.95;100134.53;5109453;28;20034;-72
2022/04/24 02:40:03;;;;;;;14.40;7.30;;;;;;;9.77;60.52;100136.41;5090499;28;20053;-72
2022/04/24 02:42:28;;;;;;;13.35;7.07;;;;;;;9.79;60.05;100141.50;5090310;28;20552;-72
2022/04/24 02:44:54;;;;;;;11.55;6.70;;;;;;;9.76;59.96;100140.09;5099163;28;20504;-72
2022/04/24 02:47:19;;;;;;;12.45;6.90;;;;;;;9.71;60.43;100145.22;5095620;28;20118;-71
2022/04/24 02:49:44;;;;;;;13.55;7.00;;;;;;;9.67;60.68;100138.69;5107041;28;20130;-71
2022/04/24 02:52:10;;;;;;;11.35;6.30;;;;;;;9.64;60.82;100139.94;5109708;27;20081;-71
2022/04/24 02:54:35;;;;;;;10.57;6.28;;;;;;;9.57;61.24;100146.28;5094903;28;20055;-72
2022/04/24 02:57:00;;;;;;;11.20;5.95;;;;;;;9.51;61.21;100153.25;5107013;28;20031;-71
2022/04/24 02:59:26;;;;;;;13.23;7.15;;;;;;;9.45;61.44;100151.41;5102094;28;20372;-72
2022/04/24 03:01:52;;;;;;;16.27;7.47;;;;;;;9.36;62.30;100150.81;5109248;28;20101;-72
2022/04/24 03:04:17;;;;;;;14.10;7.18;;;;;;;9.37;61.82;100151.63;5109254;28;20058;-72
2022/04/24 03:06:43;;;;;;;12.52;7.20;;;;;;;9.35;62.08;100156.31;5105573;28;20356;-72
2022/04/24 03:09:08;;;;;;;13.88;7.43;;;;;;;9.31;62.37;100157.78;5089897;28;20070;-71
2022/04/24 03:11:34;;;;;;;14.00;7.40;;;;;;;9.27;62.41;100154.69;5109330;28;20031;-72
2022/04/24 03:13:59;;;;;;;10.95;6.40;;;;;;;9.27;62.38;100152.03;5096261;28;21001;-72
2022/04/24 03:16:25;;;;;;;13.20;7.05;;;;;;;9.21;62.75;100139.56;5089651;28;20495;-71
2022/04/24 03:18:51;;;;;;;12.88;6.60;;;;;;;9.15;62.93;100137.72;5109111;28;20028;-71
2022/04/24 03:21:16;;;;;;;13.25;6.95;;;;;;;9.10;63.27;100141.00;5108128;28;20467;-72
2022/04/24 03:23:41;;;;;;;14.02;6.97;;;;;;;9.06;63.23;100141.59;5109140;28;20386;-72
2022/04/24 03:26:07;;;;;;;16.05;9.05;;;;;;;9.01;64.16;100150.19;5109423;28;20110;-72
2022/04/24 03:28:32;;;;;;;13.18;8.18;;;;;;;9.01;63.87;100144.84;5107896;28;20035;-72
2022/04/24 03:30:58;;;;;;;13.68;7.43;;;;;;;8.97;64.19;100141.78;5109358;28;20024;-72
2022/04/24 03:33:23;;;;;;;15.02;8.23;;;;;;;8.95;64.60;100146.50;5089699;28;20031;-72
2022/04/24 03:35:49;;;;;;;9.07;4.88;;;;;;;8.96;64.20;100152.63;5089745;28;20118;-72
2022/04/24 03:38:14;;;;;;;13.93;7.70;;;;;;;8.97;64.81;100143.66;5089648;28;20024;-72
2022/04/24 03:40:40;;;;;;;13.65;6.82;;;;;;;8.96;64.30;100160.59;5102215;28;20035;-71
2022/04/24 03:43:05;;;;;;;13.73;8.35;;;;;;;8.89;64.85;100146.50;5108837;28;20123;-72
2022/04/24 03:45:31;;;;;;;11.77;7.25;;;;;;;8.93;64.64;100158.34;5109010;28;20139;-72
2022/04/24 03:47:56;;;;;;;13.77;7.85;;;;;;;8.82;65.34;100146.47;5109221;28;20076;-71
2022/04/24 03:50:22;;;;;;;14.38;8.45;;;;;;;8.80;65.68;100147.69;5109159;28;20064;-71
2022/04/24 03:52:47;;;;;;;14.68;8.52;;;;;;;8.80;65.70;100153.03;5105979;28;20049;-71
2022/04/24 03:55:14;;;;;;;13.40;8.35;;;;;;;8.78;65.78;100146.06;5099511;28;20391;-71
2022/04/24 03:57:39;;;;;;;17.15;8.50;;;;;;;8.76;65.74;100155.28;5099189;28;20038;-71
2022/04/24 04:00:05;;;;;;;14.52;8.00;;;;;;;8.75;65.96;100146.47;5089225;28;20028;-72
2022/04/24 04:02:31;;;;;;;13.73;7.78;;;;;;;8.71;66.12;100149.75;5090029;28;20039;-71
2022/04/24 04:04:57;;;;;;;14.13;7.20;;;;;;;8.64;66.52;100139.09;5092943;28;20038;-72
2022/04/24 04:07:22;;;;;;;15.18;7.65;;;;;;;8.65;66.94;100150.56;5104892;28;20114;-72
2022/04/24 04:09:48;;;;;;;14.18;7.50;;;;;;;8.61;67.41;100144.81;5106199;28;20092;-71
2022/04/24 04:12:13;;;;;;;11.13;6.43;;;;;;;8.62;67.32;100146.47;5112934;28;20444;-71
2022/04/24 04:14:38;;;;;;;12.15;6.85;;;;;;;8.61;67.10;100152.78;5112632;28;20047;-71
2022/04/24 04:17:04;;;;;;;12.55;8.68;;;;;;;8.56;67.64;100153.38;5112687;28;20144;-71
2022/04/24 04:19:29;;;;;;;13.02;7.05;;;;;;;8.54;67.96;100147.47;5111106;28;20080;-71
2022/04/24 04:21:55;;;;;;;14.00;7.63;;;;;;;8.52;67.68;100148.69;5111122;28;20031;-72
2022/04/24 04:24:20;;;;;;;12.90;7.00;;;;;;;8.49;68.11;100149.91;5106813;28;20032;-72
2022/04/24 04:26:46;;;;;;;14.18;7.82;;;;;;;8.43;68.26;100161.31;5092794;28;20479;-72
2022/04/24 04:29:11;;;;;;;11.60;6.75;;;;;;;8.35;68.20;100148.19;5092847;28;20024;-72
2022/04/24 04:31:37;;;;;;;16.45;7.75;;;;;;;8.37;68.59;100140.03;5092945;28;20028;-72
2022/04/24 04:34:02;;;;;;;13.45;7.18;;;;;;;8.31;68.06;100142.44;5112259;28;20074;-72
2022/04/24 04:36:28;;;;;;;14.73;8.43;;;;;;;8.37;68.57;100161.28;5112051;28;20514;-72
2022/04/24 04:38:54;;;;;;;11.85;7.50;;;;;;;8.39;68.46;100160.09;5112334;28;20016;-72
2022/04/24 04:41:19;;;;;;;13.07;7.45;;;;;;;8.39;68.73;100159.25;5112305;28;20027;-72
2022/04/24 04:43:45;;;;;;;12.60;6.97;;;;;;;8.40;68.95;100174.19;5112251;28;20035;-72
2022/04/24 04:46:10;;;;;;;11.88;6.50;;;;;;;8.42;68.38;100169.50;5110698;28;20457;-71
2022/04/24 04:48:35;;;;;;;12.95;7.60;;;;;;;8.44;68.46;100181.56;5112081;28;20055;-71
2022/04/24 04:51:01;;;;;;;14.85;6.65;;;;;;;8.39;68.74;100167.22;5111935;28;20078;-71
2022/04/24 04:53:26;;;;;;;15.32;6.97;;;;;;;8.41;68.62;100181.13;5111590;28;20043;-72
2022/04/24 04:55:52;;;;;;;13.18;7.28;;;;;;;8.48;67.95;100174.00;5111676;28;20073;-71
2022/04/24 04:58:17;;;;;;;11.95;6.68;;;;;;;8.51;68.58;100177.09;5111377;28;20027;-71
2022/04/24 05:00:42;;;;;;;13.95;7.57;;;;;;;8.59;67.69;100183.25;5111746;27;20032;-71
2022/04/24 05:03:08;;;;;;;10.50;6.10;;;;;;;8.70;68.05;100180.84;5111681;28;20081;-71
2022/04/24 05:05:34;;;;;;;11.65;6.88;;;;;;;8.82;67.43;100183.72;5094990;28;20054;-72
2022/04/24 05:07:59;;;;;;;12.32;6.18;;;;;;;8.94;66.91;100192.75;5110081;28;20032;-72
2022/04/24 05:10:25;;;;;;;12.82;6.78;;;;;;;9.06;66.63;100200.94;5110268;28;20383;-71
2022/04/24 05:12:50;;;;;;;12.30;6.55;;;;;;;9.12;66.31;100200.13;5111220;28;20390;-72
2022/04/24 05:15:16;;;;;;;11.20;6.25;;;;;;;9.25;65.76;100186.03;5111396;28;20051;-71
2022/04/24 05:17:43;;;;;;;12.23;6.38;;;;;;;9.42;64.94;100208.53;5097853;28;20028;-71
2022/04/24 05:20:13;;;;;;;10.30;6.15;;;;;;;9.48;64.90;100209.53;5111436;28;20063;-72
2022/04/24 05:22:40;;;;;;;13.20;7.00;;;;;;;9.69;64.29;100213.03;5111233;28;20031;-72
2022/04/24 05:25:09;;;;;;;11.52;6.30;;;;;;;9.69;63.46;100205.84;5111320;28;20489;-71
2022/04/24 05:27:36;;;;;;;13.88;6.88;;;;;;;9.81;63.39;100211.38;5111298;28;20069;-71
2022/04/24 05:30:03;;;;;;;12.55;6.30;;;;;;;10.05;62.93;100216.03;5111643;28;20482;-71
2022/04/24 05:32:29;;;;;;;12.07;6.40;;;;;;;10.07;62.98;100216.66;5100074;28;20120;-71
2022/04/24 05:34:54;;;;;;;12.30;6.40;;;;;;;10.10;62.55;100218.06;5106770;28;20023;-71
2022/04/24 05:37:20;;;;;;;15.00;6.15;;;;;;;10.36;61.77;100221.72;5097105;28;20441;-71
2022/04/24 05:39:45;;;;;;;11.10;5.60;;;;;;;10.48;61.49;100236.03;5090418;28;20043;-71
2022/04/24 05:42:10;;;;;;;12.90;6.13;;;;;;;10.57;61.16;100221.44;5091313;28;20028;-72
2022/04/24 05:44:36;;;;;;;12.52;6.53;;;;;;;10.48;61.02;100228.03;5091009;28;20064;-72
2022/04/24 05:47:01;;;;;;;14.73;6.32;;;;;;;10.38;61.36;100227.66;5090210;28;20035;-71
2022/04/24 05:49:26;;;;;;;10.45;6.03;;;;;;;10.39;60.89;100227.44;5110745;28;20165;-72
2022/04/24 05:51:52;;;;;;;11.88;6.85;;;;;;;10.17;61.57;100232.19;5110993;28;20971;-71
2022/04/24 05:54:17;;;;;;;12.02;6.03;;;;;;;9.98;62.30;100227.72;5109493;28;20395;-72
2022/04/24 05:56:42;;;;;;;14.45;8.23;;;;;;;9.90;62.39;100225.28;5110491;28;20396;-71
2022/04/24 05:59:08;;;;;;;10.70;5.85;;;;;;;9.93;62.63;100239.03;5107556;28;20074;-71
2022/04/24 06:01:34;;;;;;;11.75;5.85;;;;;;;9.94;62.15;100234.50;5090658;28;20063;-71
2022/04/24 06:04:00;;;;;;;11.73;5.97;;;;;;;9.95;62.91;100242.28;5110690;28;20115;-71
2022/04/24 06:06:26;;;;;;;10.73;6.22;;;;;;;10.12;61.71;100229.34;5110595;28;20057;-71
2022/04/24 06:08:51;;;;;;;12.48;5.82;;;;;;;10.29;61.30;100243.88;5110179;28;20035;-72
2022/04/24 06:11:18;;;;;;;12.07;5.55;;;;;;;10.37;60.87;100244.66;5110194;28;20031;-71
2022/04/24 06:13:45;;;;;;;8.75;5.35;;;;;;;10.21;61.41;100240.59;5100393;28;20046;-71
2022/04/24 06:16:10;;;;;;;13.55;6.97;;;;;;;10.14;61.43;100231.78;5110344;28;20955;-71
2022/04/24 06:18:36;;;;;;;10.05;5.68;;;;;;;10.13;61.44;100238.16;5110202;28;20042;-71
2022/04/24 06:21:01;;;;;;;10.88;6.50;;;;;;;10.07;61.47;100251.28;5110396;28;20035;-71
2022/04/24 06:23:28;;;;;;;9.60;6.03;;;;;;;10.04;61.45;100243.72;5110081;28;20468;-71
2022/04/24 06:25:55;;;;;;;14.40;6.00;;;;;;;10.03;61.49;100242.09;5109569;28;20471;-71
2022/04/24 06:28:20;;;;;;;12.15;6.10;;;;;;;10.07;61.59;100239.81;5110187;28;20088;-71
2022/04/24 06:30:47;;;;;;;12.05;6.43;;;;;;;10.10;61.75;100244.72;5110140;28;20036;-71
2022/04/24 06:33:13;;;;;;;10.35;5.38;;;;;;;10.13;61.88;100224.84;5109931;28;20035;-72
2022/04/24 06:35:39;;;;;;;15.55;7.13;;;;;;;10.21;61.61;100232.59;5109238;28;20081;-71
2022/04/24 06:38:05;;;;;;;11.52;5.72;;;;;;;10.32;61.09;100242.63;5110052;28;20035;-71
2022/04/24 06:40:31;;;;;;;11.93;5.72;;;;;;;10.33;60.76;100238.94;5109819;28;20455;-71
2022/04/24 06:42:57;;;;;;;12.23;7.43;;;;;;;10.43;61.08;100246.50;5110003;28;20077;-71
2022/04/24 06:45:34;;;;;;;9.43;5.32;;;;;;;10.50;59.97;100244.63;5109650;28;20048;-71
2022/04/24 06:48:05;;;;;;;16.13;7.65;;;;;;;10.47;60.09;100237.88;5105214;28;20398;-72
2022/04/24 06:50:31;;;;;;;12.48;6.53;;;;;;;10.59;60.25;100261.22;5098442;28;20051;-72
2022/04/24 06:53:01;;;;;;;11.88;6.25;;;;;;;10.57;59.92;100253.41;5090364;28;20035;-72
2022/04/24 06:55:32;;;;;;;12.10;6.60;;;;;;;10.57;60.16;100240.09;5088333;28;20044;-72
2022/04/24 06:57:59;;;;;;;9.30;5.85;;;;;;;10.65;59.50;100247.03;5100794;28;20038;-71
2022/04/24 07:00:27;;;;;;;9.65;5.80;;;;;;;10.64;59.44;100250.75;5109112;28;20030;-71
2022/04/24 07:02:52;;;;;;;10.07;6.38;;;;;;;10.82;59.57;100266.03;5109414;28;20027;-72
2022/04/24 07:05:20;;;;;;;13.15;6.93;;;;;;;10.87;58.84;100252.88;5109422;28;20027;-71
2022/04/24 07:07:46;;;;;;;14.23;6.95;;;;;;;10.87;58.37;100259.03;5109319;28;20038;-71
2022/04/24 07:10:11;;;;;;;11.25;6.35;;;;;;;10.87;58.97;100252.88;5109274;28;20027;-72
2022/04/24 07:12:53;;;;;;;11.05;6.07;;;;;;;10.90;59.00;100265.81;5108682;28;20035;-71
2022/04/24 07:15:20;;;;;;;11.23;6.55;;;;;;;10.95;58.48;100252.63;5109153;28;20057;-72
2022/04/24 07:17:47;;;;;;;13.38;6.88;;;;;;;11.03;58.20;100256.88;5109242;28;20030;-72
2022/04/24 07:20:15;;;;;;;13.30;6.80;;;;;;;11.10;57.93;100255.00;5109176;28;20039;-72
2022/04/24 07:22:46;;;;;;;10.73;6.05;;;;;;;11.19;58.13;100257.22;5091357;28;20604;-72
2022/04/24 07:25:13;;;;;;;14.60;7.10;;;;;;;11.41;57.12;100270.19;5089588;28;20468;-71
2022/04/24 07:27:39;;;;;;;11.25;6.53;;;;;;;11.58;56.92;100267.81;5108744;28;20035;-72
2022/04/24 07:30:08;;;;;;;10.88;5.80;;;;;;;11.99;56.36;100264.59;5109147;28;20189;-72
2022/04/24 07:32:59;;;;;;;9.75;5.93;;;;;;;12.60;55.33;100265.63;5108777;28;21032;-72
2022/04/24 07:35:27;;;;;;;11.10;6.45;;;;;;;12.69;53.82;100274.16;5104918;28;20047;-72
2022/04/24 07:37:53;;;;;;;12.23;7.10;;;;;;;12.68;52.77;100281.34;5098719;28;20028;-71
2022/04/24 07:40:20;;;;;;;11.50;6.55;;;;;;;12.71;52.76;100264.03;5093765;28;20032;-72
2022/04/24 07:42:48;;;;;;;13.20;7.18;;;;;;;12.83;52.94;100269.44;5113128;28;20036;-72
2022/04/24 07:45:20;;;;;;;9.25;5.68;;;;;;;13.08;51.99;100270.13;5113097;28;20072;-73
2022/04/24 07:47:46;;;;;;;14.40;6.47;;;;;;;13.43;51.46;100273.97;5113345;28;20479;-72
2022/04/24 07:50:13;;;;;;;10.98;6.22;;;;;;;13.81;49.21;100269.03;5112900;28;20034;-73
2022/04/24 07:52:38;;;;;;;10.93;6.32;;;;;;;14.02;48.75;100266.81;5112915;28;20035;-73
2022/04/24 07:55:04;;;;;;;12.57;6.68;;;;;;;14.19;49.31;100258.88;5112994;28;20375;-72
2022/04/24 07:57:30;;;;;;;11.88;6.78;;;;;;;15.25;46.82;100259.38;5112618;28;20088;-72
2022/04/24 07:59:55;;;;;;;12.98;7.20;;;;;;;16.20;44.33;100260.34;5104506;28;20028;-75
2022/04/24 08:02:20;;;;;;;12.48;7.20;;;;;;;16.68;43.17;100260.66;5099547;28;20047;-72
2022/04/24 08:04:46;;;;;;;10.02;7.05;;;;;;;16.94;41.73;100263.69;5097821;28;20565;-71
2022/04/24 08:07:11;;;;;;;12.68;6.93;;;;;;;17.66;40.13;100265.16;5096641;27;20464;-71
2022/04/24 08:09:36;;;;;;;9.77;6.15;;;;;;;18.46;39.06;100267.84;5098305;27;20030;-72
2022/04/24 08:12:02;;;;;;;10.00;6.45;;;;;;;18.62;37.71;100275.72;5096619;28;20031;-70
2022/04/24 08:14:28;;;;;;;13.13;7.80;;;;;;;18.59;38.51;100276.25;5096328;27;20028;-71
2022/04/24 08:16:53;;;;;;;13.95;7.28;;;;;;;18.64;37.69;100275.47;5096393;28;20487;-70
2022/04/24 08:19:18;;;;;;;10.75;6.65;;;;;;;18.54;38.44;100278.13;5091840;28;20044;-71
2022/04/24 08:21:44;;;;;;;9.93;5.25;;;;;;;18.99;37.39;100280.22;5088650;28;20114;-70
2022/04/24 08:24:10;;;;;;;12.32;7.60;;;;;;;19.24;36.89;100268.63;5112481;28;20043;-71
2022/04/24 08:26:36;;;;;;;10.75;6.25;;;;;;;19.53;35.41;100272.72;5112576;28;20020;-70
2022/04/24 08:29:01;;;;;;;10.55;7.05;;;;;;;19.35;36.19;100284.88;5110686;28;20467;-70
2022/04/24 08:31:26;;;;;;;13.57;6.55;;;;;;;18.80;36.67;100290.69;5112193;28;20084;-71
2022/04/24 08:33:53;;;;;;;12.35;6.63;;;;;;;18.76;36.98;100278.78;5112482;28;20080;-71
2022/04/24 08:36:18;;;;;;;10.10;6.75;;;;;;;18.89;36.56;100272.09;5110928;28;20028;-70
2022/04/24 08:38:43;;;;;;;11.13;7.20;;;;;;;19.14;36.74;100279.41;5112124;28;20039;-71
2022/04/24 08:41:09;;;;;;;10.50;6.95;;;;;;;19.08;37.13;100283.19;5112187;28;20047;-70
2022/04/24 08:43:35;;;;;;;12.52;7.88;;;;;;;18.52;36.56;100281.09;5112119;28;20034;-71
2022/04/24 08:46:02;;;;;;;10.75;6.60;;;;;;;17.46;39.10;100287.38;5112128;28;20047;-70
2022/04/24 08:48:28;;;;;;;11.52;6.78;;;;;;;16.61;41.82;100271.66;5111545;28;20035;-71
2022/04/24 08:50:55;;;;;;;13.27;7.30;;;;;;;16.06;42.75;100291.38;5112335;28;20024;-68
2022/04/24 08:53:21;;;;;;;14.70;7.05;;;;;;;15.44;43.79;100276.09;5112233;28;20064;-70
2022/04/24 08:55:47;;;;;;;12.68;6.88;;;;;;;15.28;45.17;100296.50;5111965;28;20036;-70
2022/04/24 08:58:12;;;;;;;13.75;7.75;;;;;;;15.04;45.56;100300.38;5112156;28;20034;-71
2022/04/24 09:00:38;;;;;;;13.32;8.38;;;;;;;14.94;45.25;100290.25;5112388;28;20470;-70
2022/04/24 09:03:04;;;;;;;12.05;7.20;;;;;;;14.86;46.23;100294.13;5110689;28;20032;-71
2022/04/24 09:05:30;;;;;;;12.10;7.22;;;;;;;14.84;46.58;100292.72;5111753;28;20500;-71
2022/04/24 09:08:09;;;;;;;13.95;8.10;;;;;;;14.80;46.75;100304.97;5111308;28;20061;-71
2022/04/24 09:10:50;;;;;;;17.70;8.70;;;;;;;14.83;47.01;100296.47;5111617;28;20054;-70
2022/04/24 09:13:29;;;;;;;12.90;7.10;;;;;;;14.86;46.47;100293.31;5111798;28;20080;-70
2022/04/24 09:16:00;;;;;;;13.63;7.65;;;;;;;14.89;48.00;100296.31;5109452;28;20028;-70
2022/04/24 09:18:39;;;;;;;9.95;6.28;;;;;;;14.99;46.64;100295.72;5111395;28;20088;-70
2022/04/24 09:21:05;;;;;;;14.30;8.25;;;;;;;14.96;45.75;100293.50;5101313;28;20058;-75
2022/04/24 09:23:37;;;;;;;13.18;8.07;;;;;;;14.99;46.68;100302.97;5098292;28;20073;-71
2022/04/24 09:26:03;;;;;;;11.52;7.60;;;;;;;15.01;45.83;100298.97;5095046;28;20024;-71
2022/04/24 09:28:39;;;;;;;14.10;8.30;;;;;;;15.02;46.05;100294.41;5097265;28;20164;-71
2022/04/24 09:31:05;;;;;;;12.30;8.02;;;;;;;15.15;46.21;100307.56;5094898;28;20119;-72
2022/04/24 09:33:41;;;;;;;12.80;7.45;;;;;;;15.27;45.62;100302.94;5095805;28;20039;-70
2022/04/24 09:36:07;;;;;;;13.48;7.40;;;;;;;15.28;45.58;100293.00;5093959;28;20065;-72
2022/04/24 09:38:40;;;;;;;12.93;7.88;;;;;;;15.26;46.49;100293.25;5095032;28;20038;-70
2022/04/24 09:41:14;;;;;;;15.60;8.23;;;;;;;15.33;45.73;100310.03;5095822;28;20032;-71
2022/04/24 09:43:41;;;;;;;14.85;7.95;;;;;;;15.29;45.26;100290.06;5096042;28;20020;-73
2022/04/24 09:46:07;;;;;;;16.17;8.60;;;;;;;15.41;45.43;100294.59;5098082;27;20048;-70
2022/04/24 09:48:33;;;;;;;13.77;7.40;;;;;;;15.33;45.78;100293.91;5095054;28;20378;-71
2022/04/24 09:50:59;;;;;;;12.43;7.63;;;;;;;15.36;45.77;100291.81;5096278;27;20035;-71
2022/04/24 09:53:27;;;;;;;13.82;8.15;;;;;;;15.47;45.00;100296.28;5094509;28;20023;-70
2022/04/24 09:55:54;;;;;;;15.70;8.30;;;;;;;15.44;44.29;100294.91;5110539;28;20081;-70
2022/04/24 09:58:22;;;;;;;15.40;8.55;;;;;;;15.42;44.44;100301.59;5110813;28;20447;-71
2022/04/24 10:00:50;;;;;;;13.70;7.55;;;;;;;15.46;44.97;100308.94;5109315;28;20534;-71
2022/04/24 10:03:17;;;;;;;13.75;8.32;;;;;;;15.42;44.98;100290.84;5110544;28;20083;-71
2022/04/24 10:05:45;;;;;;;15.65;8.68;;;;;;;15.47;45.55;100294.41;5110232;28;20421;-71
2022/04/24 10:08:11;;;;;;;13.85;8.23;;;;;;;15.62;45.39;100288.50;5110343;28;20031;-71
2022/04/24 10:10:37;;;;;;;13.13;8.23;;;;;;;15.77;44.12;100304.91;5109860;28;20035;-71
2022/04/24 10:13:08;;;;;;;14.13;7.82;;;;;;;15.85;44.35;100301.00;5110505;28;20107;-71
2022/04/24 10:15:35;;;;;;;;;;;;;;;15.91;44.83;100299.19;5110840;28;20039;-71
2022/04/24 10:18:41;;;;;;;12.88;7.03;;;;;;;15.99;44.83;100293.41;5110145;28;20308;-72
2022/04/24 10:21:25;;;;;;;14.02;8.00;;;;;;;16.08;43.62;100308.06;5110340;28;20083;-71
2022/04/24 10:23:50;;;;;;;11.10;6.65;;;;;;;15.92;43.98;100293.56;5090626;28;20136;-71
2022/04/24 10:26:21;;;;;;;12.82;7.85;;;;;;;16.02;43.66;100309.03;5110243;28;20102;-71
2022/04/24 10:28:47;;;;;;;12.77;7.10;;;;;;;16.18;43.32;100307.41;5110286;28;20026;-71
2022/04/24 10:31:15;;;;;;;12.85;8.02;;;;;;;16.30;43.24;100291.16;5109283;28;20028;-71
2022/04/24 10:33:52;;;;;;;10.70;6.55;;;;;;;16.35;42.70;100296.63;5109756;28;20095;-72
2022/04/24 10:36:18;;;;;;;13.00;7.00;;;;;;;16.32;42.21;100306.00;5092075;28;20035;-71
2022/04/24 10:38:57;;;;;;;15.13;8.07;;;;;;;16.18;44.07;100300.13;5110023;28;20058;-71
2022/04/24 10:41:29;;;;;;;10.57;6.80;;;;;;;16.33;43.54;100325.66;5109856;28;20096;-71
2022/04/24 10:44:07;;;;;;;13.02;6.80;;;;;;;16.26;42.88;100319.63;5109728;28;20027;-71
2022/04/24 10:46:33;;;;;;;12.05;7.30;;;;;;;16.18;42.55;100302.81;5109683;28;20067;-71
2022/04/24 10:49:10;;;;;;;11.82;6.57;;;;;;;16.10;43.31;100297.88;5108769;28;20489;-71
2022/04/24 10:51:37;;;;;;;12.57;6.95;;;;;;;16.23;43.53;100309.34;5109735;28;20023;-71
2022/04/24 10:54:16;;;;;;;15.60;7.20;;;;;;;16.37;43.74;100299.84;5109757;28;20100;-71
2022/04/24 10:56:43;;;;;;;13.43;6.93;;;;;;;16.51;42.23;100297.63;5108541;28;20036;-71
2022/04/24 10:59:10;;;;;;;12.27;7.63;;;;;;;16.49;43.32;100313.22;5109501;28;20028;-71
2022/04/24 11:01:38;;;;;;;15.82;6.88;;;;;;;16.47;42.12;100308.06;5109606;28;20026;-71
2022/04/24 11:04:05;;;;;;;12.70;7.28;;;;;;;16.47;43.33;100307.25;5109377;28;20030;-70
2022/04/24 11:06:30;;;;;;;11.25;7.10;;;;;;;16.48;43.43;100298.94;5109482;28;20027;-70
2022/04/24 11:09:06;;;;;;;12.48;6.30;;;;;;;16.50;43.73;100302.19;5096371;28;20039;-72
2022/04/24 11:11:33;;;;;;;13.13;7.45;;;;;;;16.56;43.67;100289.63;5106904;28;20032;-72
2022/04/24 11:14:00;;;;;;;14.13;5.93;;;;;;;16.59;43.98;100292.63;5089287;28;20132;-70
2022/04/24 11:16:26;;;;;;;13.70;7.20;;;;;;;16.76;43.00;100297.91;5108502;28;20049;-71
2022/04/24 11:18:52;;;;;;;21.38;8.27;;;;;;;16.82;42.64;100294.28;5109033;28;20475;-70
2022/04/24 11:21:21;;;;;;;12.43;7.18;;;;;;;16.74;43.20;100299.25;5109155;28;20023;-71